Airport ICAO


13:45 UTC

31°C

Scattered clouds


An affordable passengers' Moving Map for your aircraft. Made for the iPad and the iPhone
More information here

LFLY Bron


Lyon FRANCE   VFR CAVOK


METAR LFLY 231330Z AUTO 24003KT 150V320 CAVOK 31/13 Q1018 TEMPO 34015G25KT SHRA SCT050TCU 0h15min

TAF LFLY 231100Z 2312/2412 20005KT CAVOK BECMG 2315/2317 34012KT PROB40 TEMPO 2315/2320 34015G25KT 5000 SHRA SCT050TCU TEMPO 2320/2401 35015G35KT 4000 RA BKN020 BECMG 2401/2403 BKN015 BECMG 2408/2410 SCT025 TEMPO 2408/2412 36015G30KT 2h45min





NOTAMS

OPEN